createdAt,value
2018-04-29T00:02:15.062Z,7.60
2018-04-29T00:04:41.668Z,8.47
2018-04-29T00:07:08.170Z,8.20
2018-04-29T00:09:34.602Z,8.10
2018-04-29T00:12:01.136Z,7.73
2018-04-29T00:14:27.601Z,7.90
2018-04-29T00:16:54.845Z,7.97
2018-04-29T00:19:22.055Z,6.27
2018-04-29T00:21:50.188Z,7.60
2018-04-29T00:24:21.307Z,6.47
2018-04-29T00:26:47.753Z,6.47
2018-04-29T00:29:14.276Z,6.87
2018-04-29T00:31:40.730Z,6.60
2018-04-29T00:34:07.224Z,5.87
2018-04-29T00:36:33.637Z,7.03
2018-04-29T00:39:05.340Z,5.80
2018-04-29T00:41:31.757Z,6.90
2018-04-29T00:43:58.365Z,7.37
2018-04-29T00:46:25.596Z,6.50
2018-04-29T00:48:52.085Z,5.80
2018-04-29T00:51:18.625Z,6.80
2018-04-29T00:53:45.069Z,5.80
2018-04-29T00:56:11.607Z,6.93
2018-04-29T00:58:38.059Z,6.90
2018-04-29T01:01:04.669Z,6.90
2018-04-29T01:03:31.117Z,7.00
2018-04-29T01:05:57.670Z,7.27
2018-04-29T01:08:24.052Z,6.87
2018-04-29T01:10:50.570Z,6.70
2018-04-29T01:13:17.768Z,6.77
2018-04-29T01:15:44.231Z,7.10
2018-04-29T01:18:10.717Z,6.83
2018-04-29T01:20:37.168Z,7.23
2018-04-29T01:23:03.791Z,7.00
2018-04-29T01:25:30.269Z,7.40
2018-04-29T01:27:56.851Z,7.33
2018-04-29T01:30:23.346Z,6.90
2018-04-29T01:32:50.597Z,6.90
2018-04-29T01:35:17.760Z,7.53
2018-04-29T01:37:44.982Z,6.90
2018-04-29T01:40:11.550Z,6.60
2018-04-29T01:42:38.823Z,6.60
2018-04-29T01:45:05.256Z,6.70
2018-04-29T01:47:31.806Z,6.37
2018-04-29T01:49:58.239Z,7.00
2018-04-29T01:52:24.757Z,6.50
2018-04-29T01:54:51.197Z,7.77
2018-04-29T01:57:17.797Z,6.83
2018-04-29T01:59:45.030Z,7.40
2018-04-29T02:02:11.477Z,7.10
2018-04-29T02:04:38.717Z,7.20
2018-04-29T02:07:05.270Z,7.00
2018-04-29T02:09:32.616Z,6.20
2018-04-29T02:11:59.052Z,7.00
2018-04-29T02:14:26.341Z,7.43
2018-04-29T02:16:52.817Z,5.70
2018-04-29T02:19:19.336Z,5.47
2018-04-29T02:21:45.826Z,6.30
2018-04-29T02:24:13.023Z,6.00
2018-04-29T02:26:39.526Z,5.60
2018-04-29T02:29:06.003Z,5.67
2018-04-29T02:31:32.463Z,5.13
2018-04-29T02:33:59.627Z,5.20
2018-04-29T02:36:26.888Z,5.33
2018-04-29T02:38:53.441Z,5.10
2018-04-29T02:41:19.871Z,5.33
2018-04-29T02:43:46.359Z,5.10
2018-04-29T02:46:12.792Z,5.40
2018-04-29T02:48:39.426Z,5.27
2018-04-29T02:51:05.885Z,4.80
2018-04-29T02:53:33.090Z,4.63
2018-04-29T02:55:59.581Z,5.67
2018-04-29T02:58:26.111Z,5.47
2018-04-29T03:00:52.625Z,5.60
2018-04-29T03:03:19.815Z,6.27
2018-04-29T03:05:46.299Z,4.80
2018-04-29T03:08:12.781Z,5.37
2018-04-29T03:10:39.227Z,6.20
2018-04-29T03:13:05.717Z,5.20
2018-04-29T03:15:33.066Z,5.00
2018-04-29T03:18:00.394Z,5.80
2018-04-29T03:20:26.813Z,6.13
2018-04-29T03:22:53.291Z,5.33
2018-04-29T03:25:20.745Z,5.40
2018-04-29T03:27:47.925Z,5.70
2018-04-29T03:30:14.440Z,5.60
2018-04-29T03:32:41.607Z,5.80
2018-04-29T03:35:08.103Z,6.03
2018-04-29T03:37:34.526Z,6.03
2018-04-29T03:40:07.926Z,5.40
2018-04-29T03:42:34.423Z,5.43
2018-04-29T03:45:00.874Z,5.43
2018-04-29T03:47:27.336Z,6.10
2018-04-29T03:49:53.796Z,6.30
2018-04-29T03:52:20.343Z,5.90
2018-04-29T03:54:46.801Z,5.20
2018-04-29T03:57:25.509Z,5.90
2018-04-29T04:00:04.143Z,5.60
2018-04-29T04:02:42.867Z,4.93
2018-04-29T04:05:09.296Z,4.27
2018-04-29T04:07:35.921Z,4.33
2018-04-29T04:10:02.370Z,3.60
2018-04-29T04:12:29.809Z,4.00
2018-04-29T04:14:56.270Z,4.67
2018-04-29T04:17:22.717Z,4.53
2018-04-29T04:19:49.177Z,3.60
2018-04-29T04:22:16.504Z,4.00
2018-04-29T04:24:43.069Z,3.30
2018-04-29T04:27:10.449Z,3.20
2018-04-29T04:29:36.881Z,2.63
2018-04-29T04:32:03.355Z,3.23
2018-04-29T04:34:29.806Z,2.80
2018-04-29T04:36:56.222Z,2.87
2018-04-29T04:39:22.714Z,2.53
2018-04-29T04:41:49.152Z,3.47
2018-04-29T04:44:15.659Z,3.03
2018-04-29T04:46:42.878Z,2.83
2018-04-29T04:49:09.351Z,2.70
2018-04-29T04:51:35.992Z,3.33
2018-04-29T04:54:02.445Z,2.77
2018-04-29T04:56:28.869Z,2.57
2018-04-29T04:58:55.341Z,3.30
2018-04-29T05:01:21.774Z,2.73
2018-04-29T05:03:48.255Z,2.90
2018-04-29T05:06:14.701Z,2.50
2018-04-29T05:08:41.165Z,2.97
2018-04-29T05:11:07.678Z,3.40
2018-04-29T05:13:34.253Z,2.47
2018-04-29T05:16:00.810Z,2.90
2018-04-29T05:18:27.254Z,2.93
2018-04-29T05:20:54.473Z,2.50
2018-04-29T05:23:20.895Z,2.87
2018-04-29T05:25:47.443Z,2.40
2018-04-29T05:28:13.877Z,2.53
2018-04-29T05:30:40.462Z,2.90
2018-04-29T05:33:06.909Z,2.73
2018-04-29T05:35:33.415Z,2.77
2018-04-29T05:38:00.687Z,2.63
2018-04-29T05:40:27.135Z,2.80
2018-04-29T05:42:53.606Z,2.73
2018-04-29T05:45:20.086Z,2.40
2018-04-29T05:47:46.649Z,2.63
2018-04-29T05:50:13.081Z,2.53
2018-04-29T05:52:39.607Z,2.50
2018-04-29T05:55:06.034Z,2.90
2018-04-29T05:57:32.641Z,3.30
2018-04-29T05:59:59.878Z,2.57
2018-04-29T06:02:27.146Z,2.10
2018-04-29T06:04:53.585Z,2.67
2018-04-29T06:07:20.178Z,2.73
2018-04-29T06:09:46.649Z,1.90
2018-04-29T06:12:20.689Z,2.93
2018-04-29T06:14:47.104Z,3.27
2018-04-29T06:17:13.561Z,2.53
2018-04-29T06:19:40.369Z,2.63
2018-04-29T06:22:07.592Z,2.80
2018-04-29T06:24:34.055Z,2.63
2018-04-29T06:27:00.617Z,2.60
2018-04-29T06:29:27.146Z,2.40
2018-04-29T06:31:53.662Z,2.50
2018-04-29T06:34:20.071Z,2.47
2018-04-29T06:36:46.645Z,2.40
2018-04-29T06:39:13.101Z,2.23
2018-04-29T06:41:39.614Z,2.50
2018-04-29T06:44:06.050Z,2.90
2018-04-29T06:46:32.535Z,2.50
2018-04-29T06:48:59.104Z,2.50
2018-04-29T06:51:29.827Z,2.73
2018-04-29T06:54:03.936Z,2.80
2018-04-29T06:56:30.861Z,2.67
2018-04-29T06:59:11.694Z,2.43
2018-04-29T07:01:40.489Z,2.83
2018-04-29T07:04:07.109Z,2.63
2018-04-29T07:06:34.351Z,2.70
2018-04-29T07:09:00.818Z,2.80
2018-04-29T07:11:27.344Z,2.67
2018-04-29T07:13:53.937Z,2.50
2018-04-29T07:16:21.137Z,3.00
2018-04-29T07:18:47.729Z,2.70
2018-04-29T07:21:15.011Z,2.50
2018-04-29T07:23:41.434Z,3.10
2018-04-29T07:26:07.943Z,2.73
2018-04-29T07:28:34.406Z,2.83
2018-04-29T07:31:00.907Z,2.40
2018-04-29T07:33:28.180Z,2.20
2018-04-29T07:35:54.622Z,2.87
2018-04-29T07:38:21.127Z,2.60
2018-04-29T07:40:48.415Z,2.40
2018-04-29T07:43:15.054Z,2.90
2018-04-29T07:45:41.617Z,2.97
2018-04-29T07:48:08.094Z,3.13
2018-04-29T07:50:35.899Z,2.90
2018-04-29T07:53:02.476Z,2.73
2018-04-29T07:55:28.982Z,2.60
2018-04-29T07:57:55.452Z,2.80
2018-04-29T08:00:22.701Z,2.70
2018-04-29T08:02:49.907Z,2.83
2018-04-29T08:05:16.378Z,2.60
2018-04-29T08:07:43.874Z,2.90
2018-04-29T08:10:10.350Z,3.30
2018-04-29T08:12:37.003Z,3.27
2018-04-29T08:15:03.456Z,3.50
2018-04-29T08:17:30.678Z,2.80
2018-04-29T08:19:57.173Z,3.40
2018-04-29T08:22:23.665Z,3.27
2018-04-29T08:24:50.112Z,3.73
2018-04-29T08:27:28.336Z,3.20
2018-04-29T08:29:55.028Z,4.10
2018-04-29T08:32:21.479Z,3.67
2018-04-29T08:34:48.077Z,4.00
2018-04-29T08:37:14.554Z,3.73
2018-04-29T08:39:41.757Z,3.73
2018-04-29T08:42:08.238Z,3.90
2018-04-29T08:44:34.632Z,3.83
2018-04-29T08:47:01.065Z,4.93
2018-04-29T08:49:27.519Z,4.10
2018-04-29T08:51:54.697Z,3.83
2018-04-29T08:54:21.125Z,3.90
2018-04-29T08:56:48.310Z,4.73
2018-04-29T08:59:14.763Z,4.20
2018-04-29T09:01:41.223Z,4.27
2018-04-29T09:04:07.846Z,3.87
2018-04-29T09:06:34.266Z,4.80
2018-04-29T09:09:01.250Z,4.20
2018-04-29T09:11:28.475Z,4.00
2018-04-29T09:13:54.982Z,4.10
2018-04-29T09:16:21.373Z,3.80
2018-04-29T09:18:48.657Z,3.93
2018-04-29T09:21:15.019Z,4.33
2018-04-29T09:23:41.471Z,4.10
2018-04-29T09:26:07.920Z,3.80
2018-04-29T09:28:34.383Z,4.13
2018-04-29T09:31:00.829Z,4.10
2018-04-29T09:33:27.228Z,4.20
2018-04-29T09:35:54.458Z,3.80
2018-04-29T09:38:20.926Z,4.47
2018-04-29T09:40:48.168Z,4.20
2018-04-29T09:43:15.480Z,4.13
2018-04-29T09:45:42.668Z,4.13
2018-04-29T09:48:09.866Z,3.57
2018-04-29T09:50:36.381Z,3.17
2018-04-29T09:53:02.915Z,4.33
2018-04-29T09:55:31.413Z,3.73
2018-04-29T09:57:58.117Z,3.90
2018-04-29T10:00:26.301Z,2.97
2018-04-29T10:02:53.003Z,4.30
2018-04-29T10:05:19.777Z,4.63
2018-04-29T10:07:46.305Z,3.63
2018-04-29T10:10:13.684Z,3.60
2018-04-29T10:12:40.201Z,3.37
2018-04-29T10:15:06.818Z,3.70
2018-04-29T10:17:33.342Z,4.03
2018-04-29T10:19:59.860Z,3.60
2018-04-29T10:22:26.485Z,3.43
2018-04-29T10:24:52.956Z,3.17
2018-04-29T10:27:19.590Z,3.27
2018-04-29T10:29:46.138Z,3.90
2018-04-29T10:32:13.449Z,3.87
2018-04-29T10:34:40.165Z,3.93
2018-04-29T10:37:06.934Z,3.90
2018-04-29T10:39:33.927Z,2.97
2018-04-29T10:42:00.414Z,3.40
2018-04-29T10:44:26.911Z,3.77
2018-04-29T10:46:53.593Z,3.83
2018-04-29T10:49:20.093Z,3.83
2018-04-29T10:51:46.653Z,4.30
2018-04-29T10:54:13.199Z,3.83
2018-04-29T10:56:39.745Z,4.60
2018-04-29T10:59:06.897Z,3.70
2018-04-29T11:01:36.579Z,3.53
2018-04-29T11:04:03.349Z,2.90
2018-04-29T11:06:29.870Z,3.77
2018-04-29T11:08:56.669Z,3.43
2018-04-29T11:11:23.498Z,3.97
2018-04-29T11:13:49.979Z,3.67
2018-04-29T11:16:16.481Z,3.33
2018-04-29T11:18:42.999Z,3.10
2018-04-29T11:21:09.524Z,3.20
2018-04-29T11:23:36.778Z,3.10
2018-04-29T11:26:04.410Z,3.90
2018-04-29T11:28:30.976Z,3.10
2018-04-29T11:30:58.181Z,3.40
2018-04-29T11:33:26.651Z,3.40
2018-04-29T11:35:53.420Z,3.70
2018-04-29T11:38:19.905Z,3.10
2018-04-29T11:40:46.706Z,3.23
2018-04-29T11:43:13.199Z,3.10
2018-04-29T11:45:40.973Z,3.07
2018-04-29T11:48:07.771Z,3.70
2018-04-29T11:50:36.474Z,3.37
2018-04-29T11:53:03.005Z,3.60
2018-04-29T11:55:29.567Z,3.33
2018-04-29T11:57:57.125Z,3.60
2018-04-29T12:00:24.131Z,3.57
2018-04-29T12:02:50.862Z,2.97
2018-04-29T12:05:17.626Z,2.40
2018-04-29T12:07:44.972Z,3.30
2018-04-29T12:10:11.434Z,3.43
2018-04-29T12:12:38.080Z,3.20
2018-04-29T12:15:04.625Z,2.87
2018-04-29T12:17:37.108Z,3.17
2018-04-29T12:20:03.707Z,2.67
2018-04-29T12:22:30.173Z,3.20
2018-04-29T12:24:56.689Z,2.37
2018-04-29T12:27:23.322Z,3.80
2018-04-29T12:29:52.016Z,3.70
2018-04-29T12:32:18.537Z,3.23
2018-04-29T12:34:45.069Z,2.87
2018-04-29T12:37:11.703Z,3.00
2018-04-29T12:39:38.258Z,3.40
2018-04-29T12:42:04.726Z,3.40
2018-04-29T12:44:32.469Z,3.43
2018-04-29T12:46:59.301Z,3.67
2018-04-29T12:49:25.960Z,2.90
2018-04-29T12:51:59.502Z,3.90
2018-04-29T12:54:26.256Z,3.00
2018-04-29T12:56:52.690Z,3.97
2018-04-29T12:59:19.395Z,3.40
2018-04-29T13:01:46.605Z,3.60
2018-04-29T13:04:13.385Z,3.10
2018-04-29T13:06:40.700Z,2.93
2018-04-29T13:09:07.175Z,2.60
2018-04-29T13:11:34.838Z,3.40
2018-04-29T13:14:02.250Z,3.70
2018-04-29T13:16:28.746Z,3.30
2018-04-29T13:18:55.305Z,3.13
2018-04-29T13:21:21.735Z,3.13
2018-04-29T13:23:48.468Z,2.97
2018-04-29T13:26:14.917Z,3.03
2018-04-29T13:28:41.481Z,3.20
2018-04-29T13:31:08.001Z,3.43
2018-04-29T13:33:34.563Z,3.20
2018-04-29T13:36:01.117Z,3.20
2018-04-29T13:38:27.612Z,2.93
2018-04-29T13:40:54.248Z,3.40
2018-04-29T13:43:22.041Z,3.47
2018-04-29T13:45:48.485Z,3.10
2018-04-29T13:48:15.642Z,3.40
2018-04-29T13:50:42.231Z,4.50
2018-04-29T13:53:08.745Z,2.70
2018-04-29T13:55:35.489Z,3.03
2018-04-29T13:58:02.898Z,3.10
2018-04-29T14:03:25.786Z,2.90
2018-04-29T14:05:52.331Z,3.20
2018-04-29T14:08:18.841Z,3.03
2018-04-29T14:10:46.093Z,3.40
2018-04-29T14:13:13.447Z,3.07
2018-04-29T14:15:40.698Z,2.80
2018-04-29T14:18:07.883Z,3.23
2018-04-29T14:20:34.334Z,3.57
2018-04-29T14:23:01.001Z,2.30
2018-04-29T14:25:27.505Z,3.13
2018-04-29T14:27:54.131Z,2.43
2018-04-29T14:30:21.555Z,3.10
2018-04-29T14:32:49.094Z,3.07
2018-04-29T14:35:15.612Z,2.90
2018-04-29T14:37:42.244Z,3.30
2018-04-29T14:40:08.819Z,3.63
2018-04-29T14:42:38.535Z,3.77
2018-04-29T14:45:05.166Z,3.10
2018-04-29T14:47:32.382Z,3.17
2018-04-29T14:49:58.822Z,2.90
2018-04-29T14:52:25.318Z,3.00
2018-04-29T14:54:51.807Z,3.17
2018-04-29T14:57:19.109Z,2.80
2018-04-29T14:59:45.700Z,3.60
2018-04-29T15:02:12.865Z,3.00
2018-04-29T15:04:39.334Z,3.13
2018-04-29T15:07:05.858Z,2.70
2018-04-29T15:09:32.360Z,3.10
2018-04-29T15:11:59.587Z,2.77
2018-04-29T15:14:26.927Z,3.23
2018-04-29T15:16:54.352Z,2.70
2018-04-29T15:19:20.842Z,3.10
2018-04-29T15:21:47.370Z,3.67
2018-04-29T15:24:13.916Z,2.80
2018-04-29T15:26:41.293Z,3.33
2018-04-29T15:29:07.777Z,3.10
2018-04-29T15:31:34.328Z,3.40
2018-04-29T15:34:00.840Z,3.93
2018-04-29T15:36:27.505Z,3.10
2018-04-29T15:38:54.799Z,4.40
2018-04-29T15:41:21.319Z,3.00
2018-04-29T15:43:47.807Z,3.93
2018-04-29T15:46:14.290Z,3.57
2018-04-29T15:48:40.797Z,3.07
2018-04-29T15:51:07.796Z,3.57
2018-04-29T15:53:34.276Z,3.90
2018-04-29T15:56:01.493Z,3.27
2018-04-29T15:58:29.359Z,2.97
2018-04-29T16:00:56.672Z,2.87
2018-04-29T16:03:23.295Z,3.20
2018-04-29T16:05:50.566Z,2.93
2018-04-29T16:08:17.079Z,3.30
2018-04-29T16:10:44.319Z,2.93
2018-04-29T16:13:10.810Z,3.07
2018-04-29T16:15:37.255Z,2.80
2018-04-29T16:18:03.810Z,3.47
2018-04-29T16:20:30.271Z,3.67
2018-04-29T16:22:57.557Z,3.53
2018-04-29T16:25:24.454Z,4.13
2018-04-29T16:27:50.957Z,3.40
2018-04-29T16:30:17.684Z,3.83
2018-04-29T16:32:44.181Z,3.63
2018-04-29T16:35:11.670Z,3.53
2018-04-29T16:37:38.140Z,3.80
2018-04-29T16:40:06.842Z,3.40
2018-04-29T16:42:33.369Z,3.80
2018-04-29T16:45:00.063Z,3.67
2018-04-29T16:47:26.545Z,3.57
2018-04-29T16:49:53.073Z,3.67
2018-04-29T16:52:19.808Z,3.37
2018-04-29T16:54:46.470Z,3.53
2018-04-29T16:57:13.807Z,3.47
2018-04-29T16:59:40.447Z,3.77
2018-04-29T17:02:06.973Z,3.93
2018-04-29T17:04:33.598Z,4.20
2018-04-29T17:07:00.190Z,4.30
2018-04-29T17:09:26.695Z,3.77
2018-04-29T17:11:54.364Z,4.20
2018-04-29T17:14:21.593Z,4.17
2018-04-29T17:16:48.223Z,3.93
2018-04-29T17:19:14.693Z,3.87
2018-04-29T17:21:42.370Z,4.23
2018-04-29T17:24:09.180Z,3.67
2018-04-29T17:26:35.758Z,4.73
2018-04-29T17:29:02.334Z,3.40
2018-04-29T17:31:29.480Z,4.17
2018-04-29T17:33:56.057Z,3.90
2018-04-29T17:36:23.304Z,3.80
2018-04-29T17:38:50.616Z,4.00
2018-04-29T17:41:17.325Z,3.50
2018-04-29T17:43:43.836Z,4.33
2018-04-29T17:46:10.303Z,4.27
2018-04-29T17:48:37.345Z,3.97
2018-04-29T17:51:03.800Z,3.87
2018-04-29T17:53:30.337Z,4.00
2018-04-29T17:55:56.879Z,3.87
2018-04-29T17:58:23.658Z,4.27
2018-04-29T18:00:50.922Z,4.07
2018-04-29T18:03:18.233Z,3.43
2018-04-29T18:05:45.016Z,3.83
2018-04-29T18:08:12.217Z,3.70
2018-04-29T18:10:39.082Z,3.90
2018-04-29T18:13:06.717Z,4.07
2018-04-29T18:15:33.543Z,4.13
2018-04-29T18:18:01.288Z,4.07
2018-04-29T18:20:28.479Z,3.90
2018-04-29T18:22:55.152Z,3.97
2018-04-29T18:25:28.237Z,4.13
2018-04-29T18:27:55.550Z,4.07
2018-04-29T18:30:22.472Z,3.77
2018-04-29T18:32:49.005Z,4.10
2018-04-29T18:35:15.552Z,4.03
2018-04-29T18:37:42.087Z,3.90
2018-04-29T18:40:08.649Z,4.40
2018-04-29T18:42:35.360Z,5.43
2018-04-29T18:45:01.861Z,3.80
2018-04-29T18:47:29.106Z,4.47
2018-04-29T18:49:56.465Z,4.03
2018-04-29T18:55:20.013Z,4.20
2018-04-29T18:57:46.620Z,3.87
2018-04-29T19:00:13.084Z,3.60
2018-04-29T19:02:39.881Z,3.80
2018-04-29T19:05:06.451Z,4.00
2018-04-29T19:07:32.989Z,4.13
2018-04-29T19:09:59.623Z,4.03
2018-04-29T19:12:26.376Z,3.97
2018-04-29T19:14:53.917Z,4.63
2018-04-29T19:17:20.622Z,4.13
2018-04-29T19:19:47.604Z,3.77
2018-04-29T19:22:14.681Z,4.40
2018-04-29T19:24:41.588Z,4.40
2018-04-29T19:27:08.293Z,5.63
2018-04-29T19:29:36.067Z,4.10
2018-04-29T19:32:02.949Z,4.40
2018-04-29T19:34:29.718Z,3.47
2018-04-29T19:36:56.858Z,4.93
2018-04-29T19:39:23.890Z,3.60
2018-04-29T19:41:50.830Z,4.50
2018-04-29T19:44:17.665Z,4.53
2018-04-29T19:46:44.526Z,4.27
2018-04-29T19:49:12.226Z,3.90
2018-04-29T19:51:39.041Z,3.33
2018-04-29T19:54:05.942Z,4.60
2018-04-29T19:56:33.011Z,4.87
2018-04-29T19:59:00.028Z,5.13
2018-04-29T20:01:26.983Z,5.03
2018-04-29T20:03:53.915Z,4.07
2018-04-29T20:06:20.844Z,4.80
2018-04-29T20:08:47.476Z,4.30
2018-04-29T20:11:14.297Z,5.03
2018-04-29T20:13:41.046Z,4.70
2018-04-29T20:16:08.962Z,5.50
2018-04-29T20:18:35.801Z,4.83
2018-04-29T20:21:02.768Z,3.97
2018-04-29T20:23:29.630Z,4.00
2018-04-29T20:25:57.083Z,5.00
2018-04-29T20:28:23.917Z,3.80
2018-04-29T20:30:50.776Z,4.33
2018-04-29T20:33:17.846Z,5.03
2018-04-29T20:35:45.575Z,4.73
2018-04-29T20:38:13.144Z,4.20
2018-04-29T20:40:40.681Z,5.20
2018-04-29T20:43:08.184Z,5.43
2018-04-29T20:45:35.223Z,4.13
2018-04-29T20:48:02.005Z,4.37
2018-04-29T20:50:28.711Z,4.43
2018-04-29T20:52:55.415Z,4.13
2018-04-29T20:55:22.137Z,4.20
2018-04-29T20:57:48.810Z,4.70
2018-04-29T21:00:15.738Z,3.97
2018-04-29T21:02:42.501Z,4.33
2018-04-29T21:05:10.108Z,4.50
2018-04-29T21:07:38.103Z,4.33
2018-04-29T21:10:05.369Z,4.63
2018-04-29T21:12:32.180Z,3.67
2018-04-29T21:14:58.879Z,4.20
2018-04-29T21:17:25.746Z,4.50
2018-04-29T21:19:52.464Z,3.77
2018-04-29T21:22:19.472Z,4.13
2018-04-29T21:24:46.482Z,4.20
2018-04-29T21:27:13.589Z,3.77
2018-04-29T21:29:42.336Z,4.47
2018-04-29T21:32:09.162Z,3.90
2018-04-29T21:34:35.922Z,3.40
2018-04-29T21:37:02.938Z,4.40
2018-04-29T21:39:30.043Z,3.23
2018-04-29T21:41:57.510Z,3.97
2018-04-29T21:44:24.521Z,4.30
2018-04-29T21:46:52.011Z,3.90
2018-04-29T21:49:19.368Z,4.60
2018-04-29T21:51:47.068Z,4.47
2018-04-29T21:54:13.910Z,4.57
2018-04-29T21:56:40.863Z,4.30
2018-04-29T21:59:07.704Z,3.97
2018-04-29T22:01:34.436Z,4.10
2018-04-29T22:04:01.458Z,4.30
2018-04-29T22:06:28.702Z,3.93
2018-04-29T22:08:55.851Z,4.33
2018-04-29T22:11:22.789Z,4.43
2018-04-29T22:13:50.784Z,4.53
2018-04-29T22:16:17.497Z,4.50
2018-04-29T22:18:45.296Z,3.67
2018-04-29T22:21:12.178Z,4.17
2018-04-29T22:23:39.891Z,3.90
2018-04-29T22:26:06.926Z,4.37
2018-04-29T22:28:33.886Z,3.83
2018-04-29T22:31:00.919Z,4.50
2018-04-29T22:33:27.675Z,3.87
2018-04-29T22:35:54.597Z,3.80
2018-04-29T22:38:21.652Z,4.40
2018-04-29T22:40:48.666Z,3.33
2018-04-29T22:43:16.515Z,3.60
2018-04-29T22:45:43.437Z,4.73
2018-04-29T22:48:11.209Z,4.20
2018-04-29T22:50:38.190Z,4.13
2018-04-29T22:53:05.837Z,4.10
2018-04-29T22:55:33.127Z,4.60
2018-04-29T22:58:01.056Z,3.97
2018-04-29T23:00:28.038Z,4.00
2018-04-29T23:02:55.174Z,3.83
2018-04-29T23:05:22.097Z,4.20
2018-04-29T23:07:49.402Z,4.40
2018-04-29T23:10:16.448Z,4.17
2018-04-29T23:12:43.403Z,3.53
2018-04-29T23:15:10.441Z,3.67
2018-04-29T23:17:37.739Z,3.30
2018-04-29T23:20:05.085Z,3.80
2018-04-29T23:22:32.554Z,3.50
2018-04-29T23:24:59.174Z,3.33
2018-04-29T23:27:25.727Z,3.10
2018-04-29T23:29:52.640Z,3.40
2018-04-29T23:32:19.210Z,3.57
2018-04-29T23:34:45.730Z,3.70
2018-04-29T23:37:12.238Z,4.30
2018-04-29T23:39:38.772Z,3.40
2018-04-29T23:42:07.018Z,3.73
2018-04-29T23:44:33.480Z,3.93
2018-04-29T23:47:00.861Z,3.20
2018-04-29T23:49:27.322Z,3.57
2018-04-29T23:51:53.882Z,3.23
2018-04-29T23:54:21.418Z,3.43
2018-04-29T23:56:48.814Z,3.57
2018-04-29T23:59:16.152Z,3.40
